Time;durP1;ratioP1;P1;durP2;ratioP2;P2;SDS_P1;SDS_P2;PMS_P1;PMS_P2;Temp;Humidity;BMP_temperature;BMP_pressure;BME280_temperature;BME280_humidity;BME280_pressure;Samples;Min_cycle;Max_cycle;Signal;HPM_P1;HPM_P2
2023/01/02 00:01:32;;;;;;;1.63;1.63;;;;;;;5.80;76.31;96810.66;5112055;28;20420;-61
2023/01/02 00:04:01;;;;;;;16.00;1.00;;;;;;;5.88;76.26;96810.50;5112468;28;20443;-60
2023/01/02 00:06:33;;;;;;;3.23;1.63;;;;;;;5.98;76.73;96817.97;5111755;28;20435;-61
2023/01/02 00:09:02;;;;;;;0.70;0.43;;;;;;;5.88;75.63;96814.94;5112213;28;20507;-61
2023/01/02 00:11:32;;;;;;;1.03;1.03;;;;;;;5.81;75.93;96804.41;5112268;28;20432;-61
2023/01/02 00:14:00;;;;;;;4.20;1.80;;;;;;;5.69;75.22;96798.16;5112098;28;20475;-59
2023/01/02 00:16:29;;;;;;;1.63;1.53;;;;;;;5.60;75.43;96796.72;5111912;28;20469;-59
2023/01/02 00:18:57;;;;;;;0.67;0.67;;;;;;;5.68;75.48;96814.94;5112130;28;20422;-62
2023/01/02 00:21:25;;;;;;;1.47;1.37;;;;;;;5.70;76.03;96824.22;5111806;28;20530;-59
2023/01/02 00:23:54;;;;;;;1.90;1.80;;;;;;;5.86;76.25;96823.06;5111816;28;20413;-59
2023/01/02 00:26:22;;;;;;;1.53;1.43;;;;;;;5.67;75.65;96831.72;5112126;28;20680;-59
2023/01/02 00:28:52;;;;;;;1.23;1.13;;;;;;;5.75;75.84;96827.06;5111735;28;20459;-60
2023/01/02 00:31:20;;;;;;;0.80;0.60;;;;;;;5.44;75.82;96818.94;5111882;28;20412;-59
2023/01/02 00:33:48;;;;;;;2.87;2.67;;;;;;;5.45;76.67;96833.72;5111942;28;20482;-59
2023/01/02 00:36:17;;;;;;;0.87;0.87;;;;;;;5.47;76.53;96801.94;5111570;28;20434;-59
2023/01/02 00:38:45;;;;;;;3.03;1.33;;;;;;;5.65;76.21;96821.41;5111538;28;20424;-60
2023/01/02 00:41:13;;;;;;;1.43;1.43;;;;;;;5.61;76.25;96828.09;5111898;28;20427;-60
2023/01/02 00:43:42;;;;;;;13.40;1.13;;;;;;;5.44;76.20;96826.81;5111883;28;20420;-60
2023/01/02 00:46:12;;;;;;;0.77;0.77;;;;;;;5.39;76.05;96828.47;5111299;28;20431;-60
2023/01/02 00:48:40;;;;;;;2.00;0.93;;;;;;;5.24;76.87;96823.34;5111874;28;20487;-60
2023/01/02 00:51:09;;;;;;;0.50;0.50;;;;;;;5.38;76.79;96834.72;5111386;28;20467;-60
2023/01/02 00:53:37;;;;;;;3.03;1.30;;;;;;;5.37;77.28;96833.09;5111614;28;20511;-60
2023/01/02 00:56:06;;;;;;;1.90;0.90;;;;;;;5.32;76.86;96838.13;5111169;28;20493;-60
2023/01/02 00:58:34;;;;;;;3.13;2.93;;;;;;;5.14;77.85;96838.69;5110993;28;20427;-59
2023/01/02 01:01:03;;;;;;;0.60;0.60;;;;;;;5.02;77.03;96788.53;5111130;28;20777;-60
2023/01/02 01:03:33;;;;;;;9.03;1.30;;;;;;;5.31;77.23;96833.91;5112742;28;20829;-60
2023/01/02 01:06:07;;;;;;;1.00;1.00;;;;;;;5.49;77.61;96831.50;5115382;28;20511;-60
2023/01/02 01:08:36;;;;;;;0.63;0.60;;;;;;;5.48;77.10;96837.78;5115052;28;20479;-60
2023/01/02 01:11:08;;;;;;;1.70;1.63;;;;;;;5.45;77.73;96830.28;5114986;28;20432;-59
2023/01/02 01:13:36;;;;;;;0.93;0.93;;;;;;;5.26;77.25;96841.56;5115115;28;20455;-60
2023/01/02 01:16:06;;;;;;;1.73;1.63;;;;;;;5.41;78.13;96823.81;5115019;28;20428;-60
2023/01/02 01:18:36;;;;;;;1.30;1.23;;;;;;;5.39;78.13;96816.09;5114979;28;20420;-59
2023/01/02 01:21:08;;;;;;;0.80;0.80;;;;;;;5.54;81.36;96821.19;5115020;28;20432;-60
2023/01/02 01:23:37;;;;;;;1.60;1.50;;;;;;;5.51;79.49;96824.22;5115329;28;20452;-60
2023/01/02 01:26:09;;;;;;;2.60;2.50;;;;;;;5.34;77.51;96801.97;5114726;28;20428;-60
2023/01/02 01:28:38;;;;;;;0.60;0.40;;;;;;;5.26;77.32;96810.84;5114640;28;20476;-60
2023/01/02 01:31:08;;;;;;;1.33;1.23;;;;;;;5.13;77.76;96802.94;5114092;28;20432;-60
2023/01/02 01:33:38;;;;;;;1.00;0.97;;;;;;;5.17;78.06;96813.81;5114277;28;20434;-60
2023/01/02 01:36:10;;;;;;;2.53;2.43;;;;;;;4.45;83.19;96817.00;5114163;28;20468;-60
2023/01/02 01:38:38;;;;;;;7.10;1.77;;;;;;;4.08;89.16;96812.94;5114792;28;20848;-61
2023/01/02 01:41:08;;;;;;;8.60;2.80;;;;;;;3.72;94.58;96813.09;5114377;28;20424;-60
2023/01/02 01:43:42;;;;;;;5.63;2.83;;;;;;;4.14;94.71;96812.19;5114479;28;20481;-60
2023/01/02 01:46:21;;;;;;;2.07;1.97;;;;;;;4.13;90.30;96738.91;5114587;28;20492;-60
2023/01/02 01:48:57;;;;;;;1.63;1.53;;;;;;;4.67;86.45;96807.22;5114187;28;20468;-60
2023/01/02 01:51:27;;;;;;;8.83;2.07;;;;;;;4.69;85.66;96803.38;5114537;28;20424;-61
2023/01/02 01:54:02;;;;;;;2.43;2.33;;;;;;;4.59;85.49;96802.13;5114490;28;20489;-60
2023/01/02 01:56:33;;;;;;;6.37;2.10;;;;;;;4.57;85.49;96798.88;5114477;28;20447;-61
2023/01/02 01:59:01;;;;;;;2.37;1.03;;;;;;;4.31;87.75;96803.00;5114471;28;20442;-60
2023/01/02 02:01:29;;;;;;;0.53;0.53;;;;;;;4.48;86.03;96804.28;5113981;28;20443;-60
2023/01/02 02:03:59;;;;;;;2.90;2.70;;;;;;;4.40;85.30;96804.44;5114057;28;20435;-60
2023/01/02 02:06:29;;;;;;;1.27;0.50;;;;;;;4.61;83.90;96800.09;5113987;28;20470;-60
2023/01/02 02:09:01;;;;;;;11.93;2.30;;;;;;;4.73;82.74;96804.59;5114005;28;21049;-60
2023/01/02 02:11:31;;;;;;;3.57;3.37;;;;;;;4.72;82.00;96778.53;5113922;28;20432;-60
2023/01/02 02:14:00;;;;;;;3.20;1.70;;;;;;;4.83;80.88;96802.41;5113347;28;20425;-60
2023/01/02 02:16:38;;;;;;;1.33;1.23;;;;;;;4.86;81.58;96803.84;5113945;28;20431;-60
2023/01/02 02:19:47;;;;;;;1.73;1.63;;;;;;;4.98;82.23;96808.31;5113903;28;20460;-60
2023/01/02 02:22:36;;;;;;;1.13;1.13;;;;;;;4.88;81.76;96797.38;5113713;28;20939;-60
2023/01/02 02:25:43;;;;;;;0.80;0.80;;;;;;;4.44;82.22;96713.81;5113125;28;20431;-60
2023/01/02 02:28:38;;;;;;;2.50;2.40;;;;;;;4.43;82.91;96704.31;5111564;28;20518;-60
2023/01/02 02:31:13;;;;;;;0.83;0.83;;;;;;;4.74;81.38;96772.09;5113590;28;20458;-59
2023/01/02 02:33:48;;;;;;;6.93;1.37;;;;;;;4.85;81.68;96795.16;5113249;28;20432;-60
2023/01/02 02:36:22;;;;;;;1.33;1.33;;;;;;;4.78;80.83;96798.78;5113155;28;20427;-60
2023/01/02 02:39:01;;;;;;;1.60;1.50;;;;;;;4.56;82.90;96803.31;5113117;28;20474;-60
2023/01/02 02:41:34;;;;;;;0.90;0.90;;;;;;;4.68;81.83;96804.38;5113505;28;20432;-60
2023/01/02 02:44:20;;;;;;;1.23;1.23;;;;;;;3.65;85.26;96709.97;5113002;28;20424;-60
2023/01/02 02:46:56;;;;;;;5.70;1.90;;;;;;;4.44;84.51;96795.19;5112897;28;21012;-60
2023/01/02 02:49:36;;;;;;;2.20;0.70;;;;;;;4.68;82.97;96791.25;5112735;28;20578;-60
2023/01/02 02:52:11;;;;;;;1.37;1.27;;;;;;;4.61;81.70;96758.91;5113215;28;20503;-60
2023/01/02 02:54:45;;;;;;;4.97;1.10;;;;;;;4.19;85.81;96786.19;5113226;28;20500;-60
2023/01/02 02:57:15;;;;;;;7.17;1.00;;;;;;;4.22;84.27;96728.06;5112719;28;20439;-59
2023/01/02 02:59:43;;;;;;;1.10;1.00;;;;;;;4.81;83.58;96775.53;5112740;28;20428;-60
2023/01/02 03:02:16;;;;;;;2.63;2.53;;;;;;;4.85;81.71;96766.28;5112537;28;20428;-60
2023/01/02 03:04:48;;;;;;;2.20;1.40;;;;;;;4.73;80.48;96762.56;5112327;28;20427;-60
2023/01/02 03:07:25;;;;;;;0.73;0.73;;;;;;;4.86;81.14;96769.69;5112641;28;20438;-59
2023/01/02 03:10:04;;;;;;;0.93;0.93;;;;;;;4.72;80.11;96770.66;5112464;28;20475;-59
2023/01/02 03:12:40;;;;;;;1.53;1.43;;;;;;;4.68;80.30;96775.47;5112780;28;20428;-59
2023/01/02 03:15:18;;;;;;;2.33;1.10;;;;;;;4.52;80.86;96773.22;5112178;28;20498;-59
2023/01/02 03:18:00;;;;;;;0.90;0.90;;;;;;;4.06;81.99;96711.81;5112634;28;20427;-59
2023/01/02 03:20:37;;;;;;;2.40;2.30;;;;;;;4.46;81.70;96771.34;5112275;28;20435;-60
2023/01/02 03:23:10;;;;;;;1.37;1.27;;;;;;;4.50;81.83;96756.84;5112402;28;20490;-60
2023/01/02 03:25:40;;;;;;;0.60;0.60;;;;;;;4.67;81.80;96768.63;5111635;28;20503;-60
2023/01/02 03:28:11;;;;;;;0.37;0.30;;;;;;;4.67;80.28;96768.63;5112408;28;20477;-60
2023/01/02 03:30:42;;;;;;;0.40;0.40;;;;;;;4.71;80.16;96771.66;5112253;28;20428;-60
2023/01/02 03:33:16;;;;;;;1.30;1.30;;;;;;;4.72;79.68;96774.09;5112489;28;20428;-59
2023/01/02 03:35:47;;;;;;;1.17;1.07;;;;;;;4.67;81.37;96765.19;5112461;28;20775;-59
2023/01/02 03:38:20;;;;;;;1.17;0.77;;;;;;;4.66;80.29;96767.00;5111707;28;20463;-60
2023/01/02 03:40:54;;;;;;;1.83;0.70;;;;;;;4.82;82.27;96766.66;5111419;28;20470;-60
2023/01/02 03:43:28;;;;;;;5.30;1.23;;;;;;;4.21;82.50;96772.84;5111913;28;20955;-61
2023/01/02 03:46:03;;;;;;;1.03;0.77;;;;;;;4.45;85.37;96777.63;5112137;28;20460;-61
2023/01/02 03:48:37;;;;;;;1.33;1.23;;;;;;;3.92;87.13;96778.34;5111885;28;20519;-60
2023/01/02 03:51:06;;;;;;;2.10;0.83;;;;;;;4.39;88.01;96775.78;5112052;28;20558;-61
2023/01/02 03:53:38;;;;;;;1.93;1.23;;;;;;;4.66;83.85;96782.75;5111768;28;20518;-60
2023/01/02 03:56:17;;;;;;;0.80;0.80;;;;;;;4.60;81.44;96762.56;5111361;28;20423;-61
2023/01/02 03:58:50;;;;;;;1.10;1.10;;;;;;;4.76;83.59;96785.00;5111629;28;20943;-60
2023/01/02 04:01:30;;;;;;;3.20;0.93;;;;;;;4.85;82.33;96786.47;5111878;28;20455;-60
2023/01/02 04:04:08;;;;;;;1.23;0.50;;;;;;;4.71;80.27;96790.84;5111548;28;20431;-60
2023/01/02 04:06:42;;;;;;;2.33;1.30;;;;;;;3.95;80.67;96662.56;5111835;28;20426;-60
2023/01/02 04:09:14;;;;;;;4.20;1.00;;;;;;;4.32;84.13;96798.56;5111435;28;20562;-60
2023/01/02 04:11:49;;;;;;;1.63;0.90;;;;;;;4.38;84.00;96793.34;5111950;28;20424;-61
2023/01/02 04:14:22;;;;;;;0.40;0.30;;;;;;;4.18;85.05;96797.66;5111554;28;20518;-60
2023/01/02 04:16:53;;;;;;;8.93;3.30;;;;;;;4.29;85.79;96797.13;5111571;28;20463;-61
2023/01/02 04:19:26;;;;;;;1.67;1.57;;;;;;;4.29;85.13;96786.63;5111610;28;20565;-60
2023/01/02 04:21:59;;;;;;;0.83;0.83;;;;;;;4.35;84.42;96795.56;5111862;28;20435;-60
2023/01/02 04:24:32;;;;;;;0.57;0.57;;;;;;;4.44;83.44;96797.81;5111561;28;20456;-60
2023/01/02 04:27:06;;;;;;;2.40;0.50;;;;;;;4.34;82.94;96800.00;5111887;28;20428;-60
2023/01/02 04:29:34;;;;;;;1.10;1.10;;;;;;;4.32;82.38;96786.25;5111492;28;20596;-60
2023/01/02 04:32:09;;;;;;;0.30;0.20;;;;;;;4.36;82.03;96802.41;5111228;28;20849;-61
2023/01/02 04:34:41;;;;;;;1.57;1.47;;;;;;;4.07;82.22;96803.47;5111375;28;20866;-60
2023/01/02 04:37:09;;;;;;;0.83;0.83;;;;;;;4.12;81.91;96806.31;5112536;28;20883;-60
2023/01/02 04:39:38;;;;;;;1.20;0.87;;;;;;;4.12;82.21;96810.75;5115729;28;20798;-60
2023/01/02 04:42:06;;;;;;;1.73;1.03;;;;;;;3.90;82.99;96806.59;5115462;28;20419;-60
2023/01/02 04:44:35;;;;;;;2.10;2.00;;;;;;;4.15;83.28;96799.88;5115618;28;20435;-60
2023/01/02 04:47:03;;;;;;;2.03;1.93;;;;;;;3.85;81.90;96807.13;5115356;28;20514;-60
2023/01/02 04:49:31;;;;;;;1.80;1.57;;;;;;;3.72;82.30;96801.78;5114782;28;20495;-61
2023/01/02 04:52:01;;;;;;;2.30;1.50;;;;;;;3.81;81.46;96804.09;5115773;28;20446;-60
2023/01/02 04:54:29;;;;;;;0.80;0.80;;;;;;;3.77;80.66;96745.16;5115776;28;20462;-60
2023/01/02 04:56:57;;;;;;;1.80;1.70;;;;;;;4.13;80.07;96800.06;5115651;28;20499;-61
2023/01/02 04:59:26;;;;;;;1.23;1.13;;;;;;;3.89;80.06;96791.84;5115181;28;20432;-59
2023/01/02 05:01:54;;;;;;;3.13;2.00;;;;;;;3.91;80.80;96793.25;5115300;28;20434;-60
2023/01/02 05:04:22;;;;;;;1.67;1.33;;;;;;;3.86;80.77;96795.66;5115162;28;20465;-58
2023/01/02 05:06:51;;;;;;;2.07;1.60;;;;;;;4.01;80.65;96803.41;5114964;28;20420;-59
2023/01/02 05:09:20;;;;;;;0.97;0.97;;;;;;;4.06;79.88;96791.34;5114799;28;20419;-59
2023/01/02 05:11:49;;;;;;;1.37;1.03;;;;;;;4.19;79.53;96795.84;5115147;28;20549;-59
2023/01/02 05:14:17;;;;;;;0.60;0.60;;;;;;;3.33;79.34;96654.72;5114655;28;20424;-59
2023/01/02 05:16:45;;;;;;;2.63;2.53;;;;;;;4.14;79.07;96798.25;5114742;28;20424;-59
2023/01/02 05:19:14;;;;;;;0.40;0.40;;;;;;;4.00;79.97;96818.34;5114419;28;20977;-59
2023/01/02 05:24:29;;;;;;;0.73;0.73;;;;;;;3.69;82.26;96807.44;5114415;28;20526;-60
2023/01/02 05:26:57;;;;;;;0.40;0.30;;;;;;;3.18;84.62;96762.22;5114938;28;20443;-60
2023/01/02 05:29:26;;;;;;;2.70;2.60;;;;;;;2.81;90.59;96812.22;5114223;28;21011;-60
2023/01/02 05:31:54;;;;;;;4.60;4.10;;;;;;;2.27;96.10;96814.34;5114289;28;20471;-59
2023/01/02 05:34:23;;;;;;;16.80;10.10;;;;;;;2.02;100.00;96808.56;5113757;28;20959;-60
2023/01/02 05:36:51;;;;;;;4.67;4.37;;;;;;;1.86;100.00;96800.88;5114193;28;20507;-60
2023/01/02 05:39:19;;;;;;;20.93;8.50;;;;;;;1.85;100.00;96802.69;5114073;28;20424;-59
2023/01/02 05:41:49;;;;;;;4.20;3.90;;;;;;;1.88;100.00;96807.56;5114060;28;20431;-59
2023/01/02 05:44:17;;;;;;;11.63;4.93;;;;;;;1.89;100.00;96816.22;5114252;28;20432;-60
2023/01/02 05:46:45;;;;;;;6.23;5.80;;;;;;;1.63;100.00;96818.41;5113596;28;20428;-60
2023/01/02 05:49:14;;;;;;;11.50;10.27;;;;;;;1.44;100.00;96818.91;5112936;28;20431;-60
2023/01/02 05:51:42;;;;;;;12.10;3.90;;;;;;;1.33;100.00;96824.53;5113910;28;20551;-61
2023/01/02 05:54:10;;;;;;;3.50;1.47;;;;;;;1.69;100.00;96825.56;5114378;28;20464;-61
2023/01/02 05:56:39;;;;;;;4.97;4.50;;;;;;;1.97;100.00;96820.56;5113927;28;20817;-62
2023/01/02 05:59:08;;;;;;;3.90;2.63;;;;;;;2.29;100.00;96828.88;5113268;28;20420;-61
2023/01/02 06:01:37;;;;;;;2.63;2.53;;;;;;;2.48;97.00;96830.09;5114020;28;20963;-61
2023/01/02 06:04:05;;;;;;;1.77;1.77;;;;;;;3.20;95.04;96820.47;5114497;28;20450;-61
2023/01/02 06:06:35;;;;;;;2.20;0.97;;;;;;;3.56;88.63;96823.84;5113566;28;20478;-61
2023/01/02 06:09:06;;;;;;;2.13;2.07;;;;;;;2.79;89.54;96812.38;5113530;28;20920;-61
2023/01/02 06:11:35;;;;;;;1.27;1.27;;;;;;;3.07;90.79;96825.56;5113555;28;20562;-61
2023/01/02 06:14:03;;;;;;;4.13;3.90;;;;;;;2.36;95.10;96836.78;5113690;28;20415;-61
2023/01/02 06:16:33;;;;;;;10.80;3.67;;;;;;;2.20;98.98;96829.94;5114035;28;20513;-61
2023/01/02 06:19:01;;;;;;;2.03;1.93;;;;;;;2.60;99.14;96823.44;5114054;28;20507;-61
2023/01/02 06:21:29;;;;;;;4.30;3.23;;;;;;;3.29;93.48;96821.97;5114078;28;20430;-61
2023/01/02 06:23:58;;;;;;;3.47;3.27;;;;;;;3.47;90.69;96822.34;5113766;28;20424;-62
2023/01/02 06:26:28;;;;;;;2.00;1.87;;;;;;;3.75;88.66;96820.56;5112855;28;20515;-61
2023/01/02 06:29:02;;;;;;;4.30;3.77;;;;;;;3.77;87.34;96826.44;5113740;28;20427;-63
2023/01/02 06:31:32;;;;;;;5.10;3.43;;;;;;;3.45;88.30;96826.97;5113539;28;20467;-62
2023/01/02 06:34:02;;;;;;;4.73;3.33;;;;;;;3.29;89.68;96829.84;5111657;28;20464;-62
2023/01/02 06:36:32;;;;;;;5.87;3.73;;;;;;;3.24;89.04;96810.44;5111711;28;20436;-62
2023/01/02 06:39:01;;;;;;;2.73;2.53;;;;;;;2.94;88.64;96767.81;5111244;28;20436;-62
2023/01/02 06:41:29;;;;;;;1.73;1.63;;;;;;;3.33;89.65;96832.91;5112465;28;20519;-62
2023/01/02 06:43:58;;;;;;;4.87;4.27;;;;;;;3.59;89.14;96828.69;5112341;28;20888;-62
2023/01/02 06:46:26;;;;;;;5.67;3.73;;;;;;;3.89;87.64;96831.16;5112230;28;20439;-61
2023/01/02 06:48:56;;;;;;;2.20;2.10;;;;;;;4.24;85.18;96827.59;5113259;28;20496;-62
2023/01/02 06:51:24;;;;;;;16.80;2.80;;;;;;;4.47;84.91;96836.81;5112990;28;20989;-63
2023/01/02 06:53:52;;;;;;;2.50;2.40;;;;;;;4.78;83.02;96833.72;5113561;28;20417;-63
2023/01/02 06:56:22;;;;;;;3.10;2.90;;;;;;;4.85;82.10;96791.72;5113599;28;20799;-64
2023/01/02 06:58:50;;;;;;;1.53;1.43;;;;;;;5.61;79.02;96835.97;5113155;28;20801;-62
2023/01/02 07:01:22;;;;;;;4.97;3.80;;;;;;;5.66;77.57;96833.56;5113044;28;20420;-61
2023/01/02 07:03:51;;;;;;;4.53;3.60;;;;;;;5.98;78.01;96831.97;5115806;28;20919;-60
2023/01/02 07:06:22;;;;;;;4.47;3.30;;;;;;;6.11;78.33;96836.41;5114740;28;20912;-60
2023/01/02 07:08:50;;;;;;;3.10;2.90;;;;;;;6.16;78.31;96833.97;5114274;28;20428;-61
2023/01/02 07:11:20;;;;;;;3.70;3.50;;;;;;;6.09;77.25;96804.22;5113193;28;20475;-62
2023/01/02 07:13:53;;;;;;;11.07;3.13;;;;;;;6.43;77.29;96816.28;5112492;28;20430;-61
2023/01/02 07:16:22;;;;;;;32.10;5.80;;;;;;;6.67;75.61;96828.78;5112656;28;20931;-61
2023/01/02 07:18:52;;;;;;;2.53;2.47;;;;;;;7.12;75.06;96822.53;5112582;28;20420;-61
2023/01/02 07:21:22;;;;;;;5.50;5.10;;;;;;;6.76;73.13;96748.47;5112558;28;20932;-61
2023/01/02 07:23:51;;;;;;;3.03;2.87;;;;;;;7.58;70.39;96765.03;5112721;28;20469;-61
2023/01/02 07:26:20;;;;;;;3.37;3.17;;;;;;;7.45;70.35;96735.28;5112623;28;20434;-60
2023/01/02 07:28:49;;;;;;;3.80;3.70;;;;;;;8.06;70.72;96822.50;5112597;28;20438;-61
2023/01/02 07:31:19;;;;;;;2.30;2.20;;;;;;;8.38;68.66;96823.22;5112772;28;20508;-60
2023/01/02 07:33:48;;;;;;;8.23;4.47;;;;;;;8.25;68.59;96818.84;5112328;28;20440;-61
2023/01/02 07:36:20;;;;;;;5.67;5.30;;;;;;;8.37;68.25;96819.81;5112371;28;20923;-61
2023/01/02 07:38:51;;;;;;;9.63;9.20;;;;;;;8.38;68.07;96821.41;5111959;28;20481;-60
2023/01/02 07:41:22;;;;;;;10.87;9.77;;;;;;;8.54;66.30;96820.03;5112292;28;20423;-61
2023/01/02 07:43:51;;;;;;;11.63;6.43;;;;;;;8.71;65.73;96815.78;5112407;28;20826;-61
2023/01/02 07:46:20;;;;;;;9.60;5.67;;;;;;;8.85;65.11;96796.88;5112359;28;20412;-61
2023/01/02 07:48:49;;;;;;;7.73;7.03;;;;;;;9.31;64.21;96820.09;5112305;28;20446;-61
2023/01/02 07:51:17;;;;;;;6.67;6.00;;;;;;;9.54;63.46;96819.38;5112151;28;20489;-60
2023/01/02 07:53:55;;;;;;;5.43;5.23;;;;;;;9.52;61.90;96816.16;5112053;28;20502;-61
2023/01/02 07:56:24;;;;;;;3.27;2.63;;;;;;;9.32;62.66;96818.25;5111855;28;20431;-60
2023/01/02 07:58:52;;;;;;;8.93;4.40;;;;;;;9.66;62.40;96811.47;5112042;28;20419;-61
2023/01/02 08:01:21;;;;;;;3.70;3.07;;;;;;;9.30;62.23;96817.69;5112402;28;20424;-61
2023/01/02 08:03:49;;;;;;;5.23;4.43;;;;;;;8.74;63.47;96825.91;5111823;28;20884;-60
2023/01/02 08:06:18;;;;;;;5.57;5.07;;;;;;;8.59;63.57;96825.47;5111636;28;20420;-60
2023/01/02 08:08:47;;;;;;;7.30;6.60;;;;;;;7.62;65.90;96810.25;5111250;28;20468;-61
2023/01/02 08:11:20;;;;;;;2.63;2.53;;;;;;;7.64;65.65;96814.28;5111556;28;20839;-61
2023/01/02 08:13:48;;;;;;;18.37;2.40;;;;;;;7.99;66.01;96824.38;5118335;28;20652;-60
2023/01/02 08:16:18;;;;;;;28.37;2.30;;;;;;;8.34;64.51;96817.59;5118673;28;20933;-61
2023/01/02 08:18:50;;;;;;;0.60;0.60;;;;;;;8.39;64.66;96817.75;5118468;28;20632;-61
2023/01/02 08:21:18;;;;;;;1.70;1.70;;;;;;;8.67;64.32;96825.19;5118976;28;20436;-62
2023/01/02 08:23:46;;;;;;;0.90;0.90;;;;;;;8.83;63.48;96787.56;5118694;28;20416;-61
2023/01/02 08:26:15;;;;;;;1.57;1.47;;;;;;;9.36;61.82;96822.09;5118580;28;20469;-61
2023/01/02 08:28:44;;;;;;;2.37;2.20;;;;;;;10.08;61.01;96826.28;5118867;28;20459;-62
2023/01/02 08:31:16;;;;;;;2.37;1.30;;;;;;;10.15;60.88;96801.31;5118511;28;20478;-63
2023/01/02 08:33:45;;;;;;;2.13;2.07;;;;;;;10.83;60.04;96803.31;5118675;28;20423;-65
2023/01/02 08:36:14;;;;;;;3.67;3.37;;;;;;;11.50;59.15;96793.75;5118560;28;20516;-65
2023/01/02 08:38:42;;;;;;;4.30;3.90;;;;;;;11.57;58.05;96812.19;5118158;28;20436;-64
2023/01/02 08:41:11;;;;;;;1.87;1.77;;;;;;;11.18;56.99;96737.69;5118125;28;20911;-64
2023/01/02 08:43:40;;;;;;;2.60;2.50;;;;;;;11.65;56.40;96758.69;5119197;28;20512;-64
2023/01/02 08:46:10;;;;;;;4.17;3.87;;;;;;;12.30;54.65;96798.78;5118455;28;20421;-65
2023/01/02 08:48:38;;;;;;;2.30;2.20;;;;;;;12.49;54.48;96800.97;5118630;28;20418;-68
2023/01/02 08:51:07;;;;;;;3.80;3.27;;;;;;;12.57;55.07;96800.50;5118486;28;20467;-71
2023/01/02 08:53:35;;;;;;;5.63;5.10;;;;;;;12.71;53.47;96779.69;5118624;28;20457;-73
2023/01/02 08:56:25;;;;;;;5.27;4.97;;;;;;;13.11;52.81;96787.38;5119035;28;20434;-75
2023/01/02 08:58:54;;;;;;;3.40;3.30;;;;;;;13.69;51.81;96776.00;5118769;28;20423;-75
2023/01/02 09:01:27;;;;;;;18.17;5.97;;;;;;;13.93;50.94;96764.78;5118807;28;20880;-73
2023/01/02 09:03:57;;;;;;;2.53;2.40;;;;;;;14.65;50.28;96760.72;5118868;28;20424;-70
2023/01/02 09:06:26;;;;;;;3.20;3.00;;;;;;;14.52;50.05;96762.78;5118304;28;20420;-69
2023/01/02 09:08:57;;;;;;;6.93;3.90;;;;;;;13.82;50.23;96648.47;5118411;28;20427;-66
2023/01/02 09:11:28;;;;;;;4.80;3.37;;;;;;;15.25;48.31;96761.75;5118319;28;20463;-65
2023/01/02 09:13:59;;;;;;;4.80;3.50;;;;;;;14.86;48.52;96747.19;5118778;28;20510;-64
2023/01/02 09:16:29;;;;;;;6.00;5.43;;;;;;;14.99;47.70;96748.59;5118862;28;20801;-63
2023/01/02 09:18:59;;;;;;;8.27;3.40;;;;;;;13.83;47.72;96580.78;5126200;28;20435;-63
2023/01/02 09:21:28;;;;;;;3.37;3.27;;;;;;;15.09;47.61;96741.41;5119729;28;20432;-63
2023/01/02 09:23:56;;;;;;;2.90;2.70;;;;;;;15.35;47.38;96733.47;5115471;28;20434;-62
2023/01/02 09:26:25;;;;;;;3.20;3.10;;;;;;;15.19;47.52;96736.09;5114901;28;20419;-61
2023/01/02 09:28:53;;;;;;;3.43;2.23;;;;;;;15.57;48.92;96721.50;5115300;28;20480;-61
2023/01/02 09:31:22;;;;;;;6.10;3.73;;;;;;;15.49;47.96;96721.22;5114795;28;20430;-61
2023/01/02 09:33:53;;;;;;;5.70;2.10;;;;;;;16.00;47.93;96706.78;5114555;28;20906;-61
2023/01/02 09:36:22;;;;;;;16.83;3.57;;;;;;;15.88;47.28;96717.78;5114623;28;20431;-60
2023/01/02 09:38:52;;;;;;;4.13;3.93;;;;;;;15.99;47.89;96707.06;5114739;28;20427;-61
2023/01/02 09:41:30;;;;;;;2.43;2.33;;;;;;;16.13;47.54;96708.09;5114482;28;20443;-61
2023/01/02 09:44:02;;;;;;;3.50;3.30;;;;;;;16.75;46.14;96656.81;5114723;28;20500;-61
2023/01/02 09:46:40;;;;;;;7.10;2.90;;;;;;;18.37;43.12;96686.66;5114423;28;20426;-61
2023/01/02 09:49:14;;;;;;;5.53;1.10;;;;;;;18.38;42.63;96672.19;5114194;28;20831;-60
2023/01/02 09:51:43;;;;;;;2.20;2.10;;;;;;;17.55;43.47;96615.31;5114209;28;20442;-61
2023/01/02 09:54:18;;;;;;;1.60;1.50;;;;;;;18.39;42.14;96671.09;5114638;28;20460;-61
2023/01/02 09:56:51;;;;;;;2.97;1.70;;;;;;;17.62;42.70;96616.59;5114404;28;20439;-61
2023/01/02 09:59:27;;;;;;;2.50;1.53;;;;;;;17.22;42.91;96646.38;5114447;28;20434;-61
2023/01/02 10:02:03;;;;;;;13.63;3.63;;;;;;;17.73;42.19;96657.53;5113876;28;20416;-60
2023/01/02 10:04:48;;;;;;;2.13;2.03;;;;;;;18.37;41.62;96651.78;5113262;28;20432;-61
2023/01/02 10:07:23;;;;;;;1.20;1.10;;;;;;;18.67;40.76;96648.75;5113378;28;20963;-60
2023/01/02 10:09:57;;;;;;;4.90;2.20;;;;;;;18.23;41.27;96624.03;5113234;28;20466;-61
2023/01/02 10:12:32;;;;;;;6.57;3.23;;;;;;;18.21;42.03;96642.31;5112935;28;20528;-61
2023/01/02 10:15:03;;;;;;;1.80;1.70;;;;;;;18.18;41.41;96599.94;5113494;28;20439;-61
2023/01/02 10:17:37;;;;;;;1.80;1.70;;;;;;;18.49;40.97;96633.44;5113859;28;20511;-60
2023/01/02 10:20:17;;;;;;;7.83;2.63;;;;;;;19.27;40.82;96630.22;5113546;28;20432;-62
2023/01/02 10:22:54;;;;;;;5.60;1.70;;;;;;;19.73;39.45;96623.03;5114087;28;20499;-61
2023/01/02 10:25:27;;;;;;;1.93;1.83;;;;;;;19.68;38.97;96623.13;5113728;28;20518;-61
2023/01/02 10:28:01;;;;;;;4.33;1.43;;;;;;;19.81;38.98;96590.06;5113410;28;20424;-62
2023/01/02 10:30:36;;;;;;;2.10;2.00;;;;;;;20.24;38.84;96612.97;5112389;28;20430;-62
2023/01/02 10:33:11;;;;;;;3.50;1.97;;;;;;;20.31;38.70;96607.19;5111609;28;20477;-62
2023/01/02 10:35:44;;;;;;;1.33;0.83;;;;;;;20.94;38.69;96593.75;5113292;28;20806;-63
2023/01/02 10:38:14;;;;;;;1.03;0.90;;;;;;;21.12;37.15;96587.44;5113115;28;20490;-62
2023/01/02 10:40:45;;;;;;;2.27;2.17;;;;;;;20.81;38.10;96595.38;5113529;28;20435;-61
2023/01/02 10:43:14;;;;;;;11.43;1.80;;;;;;;20.84;37.37;96583.19;5112536;28;21020;-61
2023/01/02 10:45:43;;;;;;;1.87;1.77;;;;;;;20.38;37.41;96586.03;5113129;28;20428;-61
2023/01/02 10:48:13;;;;;;;6.20;1.97;;;;;;;20.03;38.26;96589.41;5112994;28;21023;-61
2023/01/02 10:50:48;;;;;;;2.20;2.10;;;;;;;20.53;37.22;96574.16;5112777;28;20476;-61
2023/01/02 10:53:22;;;;;;;0.70;0.70;;;;;;;21.74;36.33;96565.91;5113386;28;21001;-61
2023/01/02 10:55:50;;;;;;;0.80;0.70;;;;;;;21.89;36.64;96558.25;5113356;28;20442;-61
2023/01/02 10:58:22;;;;;;;1.83;1.40;;;;;;;21.10;37.22;96559.94;5112048;28;20419;-62
2023/01/02 11:00:52;;;;;;;2.60;1.83;;;;;;;20.82;37.57;96534.97;5113156;28;20493;-61
2023/01/02 11:03:24;;;;;;;2.30;1.60;;;;;;;20.67;37.67;96550.69;5112805;28;20477;-60
2023/01/02 11:05:56;;;;;;;1.77;1.67;;;;;;;21.39;36.73;96543.34;5112705;28;20436;-61
2023/01/02 11:08:39;;;;;;;1.53;1.20;;;;;;;22.17;35.65;96542.63;5112617;28;20428;-62
2023/01/02 11:11:14;;;;;;;0.57;0.50;;;;;;;23.78;34.17;96537.59;5112604;28;20514;-62
2023/01/02 11:13:47;;;;;;;0.93;0.93;;;;;;;23.95;34.28;96534.88;5112504;28;20511;-63
2023/01/02 11:16:23;;;;;;;0.77;0.57;;;;;;;24.44;32.89;96517.09;5112256;28;20500;-62
2023/01/02 11:18:54;;;;;;;0.80;0.50;;;;;;;24.77;32.46;96500.91;5112556;28;20428;-60
2023/01/02 11:21:30;;;;;;;0.97;0.93;;;;;;;23.73;33.52;96518.84;5111776;28;20463;-59
2023/01/02 11:24:01;;;;;;;1.47;1.37;;;;;;;23.93;33.55;96517.34;5111925;28;20431;-60
2023/01/02 11:26:31;;;;;;;1.10;1.00;;;;;;;23.91;33.43;96506.03;5111995;28;20430;-60
2023/01/02 11:29:08;;;;;;;0.70;0.70;;;;;;;24.78;32.24;96496.31;5112166;28;20428;-60
2023/01/02 11:31:43;;;;;;;1.97;1.53;;;;;;;22.92;33.81;96484.78;5112117;28;20428;-59
2023/01/02 11:34:19;;;;;;;1.20;1.10;;;;;;;23.68;33.40;96473.00;5111276;28;20516;-59
2023/01/02 11:37:02;;;;;;;1.47;0.50;;;;;;;24.20;32.71;96483.63;5112045;28;20442;-60
2023/01/02 11:39:32;;;;;;;1.33;1.23;;;;;;;23.64;33.62;96501.03;5112226;28;20512;-59
2023/01/02 11:45:03;;;;;;;3.13;2.07;;;;;;;23.91;33.45;96476.22;5111883;28;20416;-60
2023/01/02 11:47:33;;;;;;;2.30;0.93;;;;;;;23.21;34.10;96484.88;5111084;28;20420;-60
2023/01/02 11:50:03;;;;;;;3.60;3.50;;;;;;;23.22;33.39;96454.03;5111395;28;20483;-60
2023/01/02 11:52:39;;;;;;;1.90;1.40;;;;;;;23.78;32.82;96461.78;5111840;28;20846;-60
2023/01/02 11:55:19;;;;;;;1.20;1.10;;;;;;;24.25;31.84;96483.44;5112160;28;20420;-60
2023/01/02 11:57:53;;;;;;;0.40;0.30;;;;;;;24.85;30.88;96447.75;5111854;28;20527;-60
2023/01/02 12:00:23;;;;;;;0.83;0.83;;;;;;;25.51;30.53;96464.84;5111868;28;20432;-59
2023/01/02 12:02:53;;;;;;;0.40;0.40;;;;;;;26.01;29.05;96459.91;5112140;28;20436;-59
2023/01/02 12:05:27;;;;;;;1.30;0.73;;;;;;;25.40;29.70;96455.53;5111898;28;20975;-60